Terminal Aerodrome Forecast
Issued by NWS Chicago, IL

Home | Current Version | Previous Version | Graphics & Text | Print | Product List | Glossary On
Versions: 1 2 3 4 5 6 7 8 9 10 11 12 13 14 15 16 17 18 19 20 21 22 23 24 25
000
FTUS43 KLOT 221332 AAA
TAFRFD
TAF AMD
KRFD 221332Z 2214/2312 31007KT P6SM -RA SCT010 SCT060 BKN120
     FM221600 34006KT P6SM SCT014 BKN020 BKN150
     FM221900 03007KT P6SM BKN040 BKN250
     FM230300 VRB04KT P6SM FEW250=

USA.gov is the U.S. government's official web portal to all federal, state and local government web resources and services.